Time;durP1;ratioP1;P1;durP2;ratioP2;P2;SDS_P1;SDS_P2;PMS_P1;PMS_P2;Temp;Humidity;BMP_temperature;BMP_pressure;BME280_temperature;BME280_humidity;BME280_pressure;Samples;Min_cycle;Max_cycle;Signal;HPM_P1;HPM_P2
2023/09/05 00:01:59;;;;;;;0.20;0.20;;;16.30;99.90;;;;;;5031712;28;20136;-80
2023/09/05 00:04:25;;;;;;;0.20;0.20;;;16.00;99.90;;;;;;5026495;28;20135;-80
2023/09/05 00:06:51;;;;;;;0.10;0.10;;;16.00;99.90;;;;;;5031043;28;20403;-81
2023/09/05 00:09:18;;;;;;;0.20;0.20;;;15.90;99.90;;;;;;5030849;28;20287;-80
2023/09/05 00:11:45;;;;;;;0.10;0.10;;;15.80;99.90;;;;;;5032361;28;20056;-80
2023/09/05 00:14:10;;;;;;;0.20;0.20;;;16.00;99.90;;;;;;5045796;28;20547;-80
2023/09/05 00:16:37;;;;;;;0.10;0.10;;;15.80;99.90;;;;;;5048822;28;20037;-80
2023/09/05 00:19:03;;;;;;;0.20;0.20;;;15.90;99.90;;;;;;5050058;28;20477;-80
2023/09/05 00:21:29;;;;;;;0.20;0.20;;;15.80;99.90;;;;;;5045683;28;20041;-80
2023/09/05 00:24:27;;;;;;;0.20;0.20;;;15.80;99.90;;;;;;5044253;28;20095;-80
2023/09/05 00:26:54;;;;;;;0.20;0.20;;;15.80;99.90;;;;;;5029799;28;20056;-80
2023/09/05 00:29:20;;;;;;;0.15;0.15;;;15.80;99.90;;;;;;5025651;28;20044;-80
2023/09/05 00:31:47;;;;;;;0.20;0.20;;;15.80;99.90;;;;;;5047158;28;20051;-80
2023/09/05 00:34:14;;;;;;;0.20;0.20;;;15.80;99.90;;;;;;5042138;28;20052;-81
2023/09/05 00:36:40;;;;;;;0.20;0.20;;;15.70;99.90;;;;;;5047217;28;20044;-80
2023/09/05 00:39:06;;;;;;;0.15;0.15;;;15.70;99.90;;;;;;5031708;28;20045;-80
2023/09/05 00:41:32;;;;;;;0.20;0.20;;;15.70;99.90;;;;;;5025415;28;20045;-80
2023/09/05 00:44:01;;;;;;;0.10;0.10;;;15.70;99.90;;;;;;5045022;28;20049;-81
2023/09/05 00:46:28;;;;;;;0.13;0.13;;;15.70;99.90;;;;;;5047861;28;20056;-81
2023/09/05 00:48:57;;;;;;;0.20;0.20;;;15.60;99.90;;;;;;5030227;28;20124;-80
2023/09/05 00:51:23;;;;;;;0.20;0.20;;;15.60;99.90;;;;;;5029345;28;20404;-81
2023/09/05 00:53:50;;;;;;;0.20;0.20;;;15.60;99.90;;;;;;5023878;28;20061;-80
2023/09/05 00:56:15;;;;;;;0.20;0.20;;;15.60;99.90;;;;;;5017345;28;20075;-81
2023/09/05 00:58:42;;;;;;;0.10;0.10;;;15.50;99.90;;;;;;5048136;28;20124;-81
2023/09/05 01:01:07;;;;;;;0.10;0.10;;;15.50;99.90;;;;;;5023883;28;20041;-79
2023/09/05 01:03:33;;;;;;;0.13;0.13;;;15.50;99.90;;;;;;5045433;28;20049;-80
2023/09/05 01:06:06;;;;;;;0.10;0.10;;;15.50;99.90;;;;;;5019220;28;20054;-80
2023/09/05 01:08:43;;;;;;;0.10;0.10;;;15.50;99.90;;;;;;5031162;28;20051;-80
2023/09/05 01:11:09;;;;;;;0.10;0.10;;;15.50;99.90;;;;;;5027177;28;20063;-80
2023/09/05 01:13:38;;;;;;;0.10;0.10;;;15.50;99.90;;;;;;5044797;28;20053;-80
2023/09/05 01:16:04;;;;;;;0.10;0.10;;;15.50;99.90;;;;;;5029721;28;20060;-80
2023/09/05 01:18:33;;;;;;;0.10;0.10;;;15.40;99.90;;;;;;5044381;28;20049;-80
2023/09/05 01:21:17;;;;;;;0.20;0.20;;;15.40;99.90;;;;;;5030000;28;20451;-80
2023/09/05 01:23:58;;;;;;;0.10;0.10;;;15.40;99.90;;;;;;5034708;28;20048;-80
2023/09/05 01:26:24;;;;;;;0.10;0.10;;;15.40;99.90;;;;;;5026840;28;20194;-80
2023/09/05 01:28:52;;;;;;;0.10;0.10;;;15.40;99.90;;;;;;5047547;28;20029;-80
2023/09/05 01:31:18;;;;;;;0.13;0.13;;;15.40;99.90;;;;;;5042124;28;20063;-80
2023/09/05 01:33:43;;;;;;;0.10;0.10;;;15.30;99.90;;;;;;5030767;28;20041;-80
2023/09/05 01:36:09;;;;;;;0.10;0.10;;;15.30;99.90;;;;;;5033634;28;20098;-80
2023/09/05 01:38:35;;;;;;;0.10;0.10;;;15.30;99.90;;;;;;5043853;28;20536;-80
2023/09/05 01:41:00;;;;;;;0.20;0.20;;;15.30;99.90;;;;;;5028665;28;20505;-80
2023/09/05 01:43:26;;;;;;;0.10;0.10;;;15.30;99.90;;;;;;5029588;28;20047;-80
2023/09/05 01:45:52;;;;;;;0.10;0.10;;;15.30;99.90;;;;;;5033070;28;20041;-80
2023/09/05 01:48:17;;;;;;;0.20;0.20;;;15.30;99.90;;;;;;5048327;28;20045;-80
2023/09/05 01:50:43;;;;;;;0.20;0.20;;;15.30;99.90;;;;;;5047740;28;20048;-80
2023/09/05 01:53:09;;;;;;;0.10;0.10;;;15.30;99.90;;;;;;5033438;28;20041;-80
2023/09/05 01:55:35;;;;;;;0.20;0.20;;;15.30;99.90;;;;;;5038655;28;20049;-80
2023/09/05 01:58:00;;;;;;;0.10;0.10;;;15.30;99.90;;;;;;5049008;28;20049;-80
2023/09/05 02:00:26;;;;;;;0.20;0.20;;;15.40;99.90;;;;;;5033065;28;20045;-80
2023/09/05 02:02:52;;;;;;;0.10;0.10;;;15.30;99.90;;;;;;5033173;28;20037;-80
2023/09/05 02:05:19;;;;;;;0.20;0.20;;;;;;;;;;5053032;28;20114;-80
2023/09/05 02:07:44;;;;;;;0.20;0.20;;;15.30;99.90;;;;;;5033455;28;20519;-80
2023/09/05 02:10:10;;;;;;;0.10;0.10;;;15.30;99.90;;;;;;5033538;28;20041;-80
2023/09/05 02:12:37;;;;;;;0.20;0.20;;;15.30;99.90;;;;;;5025774;28;20041;-80
2023/09/05 02:15:04;;;;;;;0.20;0.20;;;15.30;99.90;;;;;;5051139;28;20128;-80
2023/09/05 02:17:30;;;;;;;0.10;0.10;;;15.30;99.90;;;;;;5051698;28;20033;-80
2023/09/05 02:19:59;;;;;;;0.20;0.20;;;15.30;99.90;;;;;;5032784;28;20063;-79
2023/09/05 02:22:24;;;;;;;0.10;0.10;;;15.30;99.90;;;;;;5033616;28;20037;-81
2023/09/05 02:24:50;;;;;;;0.20;0.20;;;15.30;99.90;;;;;;5029410;28;20051;-80
2023/09/05 02:27:16;;;;;;;0.20;0.20;;;15.20;99.90;;;;;;5024011;28;20388;-80
2023/09/05 02:29:42;;;;;;;0.10;0.10;;;15.20;99.90;;;;;;5029900;28;20095;-80
2023/09/05 02:32:07;;;;;;;0.20;0.20;;;15.20;99.90;;;;;;5041121;28;20486;-80
2023/09/05 02:34:33;;;;;;;0.20;0.20;;;15.20;99.90;;;;;;5029244;28;20057;-80
2023/09/05 02:36:59;;;;;;;0.20;0.20;;;15.20;99.90;;;;;;5052024;28;20045;-80
2023/09/05 02:39:25;;;;;;;0.20;0.20;;;15.20;99.90;;;;;;5051053;28;20072;-80
2023/09/05 02:41:51;;;;;;;0.10;0.10;;;15.20;99.90;;;;;;5033915;28;20400;-80
2023/09/05 02:44:16;;;;;;;0.20;0.20;;;15.20;99.90;;;;;;5049160;28;20051;-80
2023/09/05 02:46:43;;;;;;;0.20;0.20;;;15.20;99.90;;;;;;5041596;28;20046;-80
2023/09/05 02:49:09;;;;;;;0.10;0.10;;;15.20;99.90;;;;;;5041966;28;20076;-79
2023/09/05 02:51:35;;;;;;;0.20;0.20;;;15.20;99.90;;;;;;5032307;28;20488;-80
2023/09/05 02:54:00;;;;;;;0.10;0.10;;;15.20;99.90;;;;;;5027371;28;20523;-79
2023/09/05 02:56:26;;;;;;;0.10;0.10;;;14.90;99.90;;;;;;5041112;28;20041;-80
2023/09/05 02:58:52;;;;;;;0.20;0.20;;;15.20;99.90;;;;;;5029932;28;20087;-79
2023/09/05 03:01:17;;;;;;;0.20;0.20;;;15.30;99.90;;;;;;5049424;28;20112;-80
2023/09/05 03:03:43;;;;;;;0.15;0.15;;;15.30;99.90;;;;;;5028821;28;20049;-80
2023/09/05 03:06:16;;;;;;;0.10;0.10;;;15.30;99.90;;;;;;5033565;28;20052;-80
2023/09/05 03:08:44;;;;;;;0.10;0.10;;;15.30;99.90;;;;;;5051164;28;20041;-80
2023/09/05 03:11:13;;;;;;;0.20;0.20;;;15.30;99.90;;;;;;5032749;28;20057;-80
2023/09/05 03:13:39;;;;;;;0.10;0.10;;;15.40;99.90;;;;;;5032913;28;20048;-80
2023/09/05 03:16:04;;;;;;;0.20;0.20;;;15.30;99.90;;;;;;5023702;28;20540;-80
2023/09/05 03:18:30;;;;;;;0.20;0.20;;;15.40;99.90;;;;;;5044860;28;20059;-80
2023/09/05 03:20:56;;;;;;;0.10;0.10;;;15.40;99.90;;;;;;5032558;28;20041;-79
2023/09/05 03:23:23;;;;;;;0.20;0.20;;;15.40;99.90;;;;;;5042062;28;20041;-80
2023/09/05 03:25:48;;;;;;;0.20;0.20;;;15.40;99.90;;;;;;5032698;28;20046;-80
2023/09/05 03:28:14;;;;;;;0.20;0.20;;;15.40;99.90;;;;;;5032349;28;20056;-80
2023/09/05 03:30:41;;;;;;;0.10;0.10;;;15.40;99.90;;;;;;5045131;28;20055;-81
2023/09/05 03:33:07;;;;;;;0.10;0.10;;;15.40;99.90;;;;;;5034944;28;20041;-80
2023/09/05 03:35:34;;;;;;;0.20;0.20;;;15.40;99.90;;;;;;5051527;28;20098;-80
2023/09/05 03:38:01;;;;;;;0.20;0.20;;;15.40;99.90;;;;;;5031903;28;20124;-80
2023/09/05 03:40:26;;;;;;;0.20;0.20;;;15.40;99.90;;;;;;5050550;28;20659;-80
2023/09/05 03:42:52;;;;;;;0.10;0.10;;;15.40;99.90;;;;;;5031197;28;20052;-79
2023/09/05 03:45:19;;;;;;;0.17;0.17;;;15.40;99.90;;;;;;5047807;28;20055;-80
2023/09/05 03:47:45;;;;;;;0.17;0.17;;;15.40;99.90;;;;;;5047959;28;20082;-79
2023/09/05 03:50:13;;;;;;;0.20;0.20;;;15.40;99.90;;;;;;5050609;28;20044;-80
2023/09/05 03:52:38;;;;;;;0.10;0.10;;;15.40;99.90;;;;;;5031326;28;20037;-80
2023/09/05 03:55:06;;;;;;;0.17;0.17;;;15.30;99.90;;;;;;5031738;28;20094;-80
2023/09/05 03:57:32;;;;;;;0.20;0.20;;;15.40;99.90;;;;;;5029501;28;20428;-79
2023/09/05 04:00:00;;;;;;;0.20;0.20;;;15.40;99.90;;;;;;5027151;28;20044;-80
2023/09/05 04:02:26;;;;;;;0.20;0.20;;;15.30;99.90;;;;;;5042011;28;20554;-80
2023/09/05 04:04:55;;;;;;;0.20;0.20;;;15.30;99.90;;;;;;5045327;28;20057;-80
2023/09/05 04:07:23;;;;;;;0.13;0.13;;;15.40;99.90;;;;;;5029044;28;20041;-80
2023/09/05 04:09:48;;;;;;;0.20;0.20;;;15.30;99.90;;;;;;5049133;28;20083;-80
2023/09/05 04:12:15;;;;;;;0.10;0.10;;;15.30;99.90;;;;;;5049641;28;20073;-80
2023/09/05 04:14:41;;;;;;;0.10;0.10;;;15.30;99.90;;;;;;5037694;28;20095;-79
2023/09/05 04:17:06;;;;;;;0.20;0.20;;;15.20;99.90;;;;;;5049492;28;20041;-82
2023/09/05 04:19:32;;;;;;;0.20;0.20;;;15.20;99.90;;;;;;5049323;28;20044;-81
2023/09/05 04:21:58;;;;;;;0.10;0.10;;;15.20;99.90;;;;;;5049341;28;20539;-81
2023/09/05 04:24:24;;;;;;;0.20;0.20;;;15.20;99.90;;;;;;5014937;28;20457;-81
2023/09/05 04:26:50;;;;;;;0.10;0.10;;;15.10;99.90;;;;;;5049478;28;20060;-81
2023/09/05 04:29:17;;;;;;;0.10;0.10;;;15.20;99.90;;;;;;5049998;28;20116;-81
2023/09/05 04:31:42;;;;;;;0.20;0.20;;;15.10;99.90;;;;;;5049426;28;20610;-79
2023/09/05 04:34:08;;;;;;;0.20;0.20;;;15.10;99.90;;;;;;5047803;28;20120;-79
2023/09/05 04:36:36;;;;;;;0.20;0.20;;;15.10;99.90;;;;;;5049532;28;20115;-81
2023/09/05 04:39:03;;;;;;;0.20;0.20;;;;;;;;;;5031041;28;20178;-79
2023/09/05 04:41:28;;;;;;;0.20;0.20;;;15.10;99.90;;;;;;5048399;28;20033;-79
2023/09/05 04:43:54;;;;;;;0.20;0.20;;;15.10;99.90;;;;;;5048898;28;20570;-79
2023/09/05 04:46:20;;;;;;;0.20;0.20;;;15.10;99.90;;;;;;5040826;28;20037;-78
2023/09/05 04:48:45;;;;;;;0.20;0.20;;;15.00;99.90;;;;;;5021270;28;20380;-81
2023/09/05 04:51:11;;;;;;;0.20;0.20;;;15.10;99.90;;;;;;5020412;28;20037;-80
2023/09/05 04:53:37;;;;;;;0.20;0.20;;;15.00;99.90;;;;;;5042312;28;20135;-80
2023/09/05 04:56:03;;;;;;;0.20;0.20;;;15.00;99.90;;;;;;5031158;28;20143;-80
2023/09/05 04:58:33;;;;;;;0.15;0.15;;;15.00;99.90;;;;;;5049728;28;20045;-79
2023/09/05 05:01:02;;;;;;;0.17;0.17;;;15.00;99.90;;;;;;5049555;28;20072;-79
2023/09/05 05:03:32;;;;;;;0.20;0.20;;;15.00;99.90;;;;;;5030812;28;20045;-80
2023/09/05 05:05:58;;;;;;;0.20;0.20;;;15.00;99.90;;;;;;5035018;28;20049;-80
2023/09/05 05:08:24;;;;;;;0.20;0.20;;;15.00;99.90;;;;;;5048118;28;20049;-80
2023/09/05 05:10:50;;;;;;;0.20;0.20;;;15.00;99.90;;;;;;5033781;28;20045;-80
2023/09/05 05:13:16;;;;;;;0.10;0.10;;;15.00;99.90;;;;;;5048844;28;20052;-80
2023/09/05 05:15:46;;;;;;;0.20;0.20;;;15.00;99.90;;;;;;5040609;28;20037;-80
2023/09/05 05:18:12;;;;;;;0.17;0.17;;;15.00;99.90;;;;;;5034448;28;20057;-80
2023/09/05 05:20:38;;;;;;;0.13;0.13;;;15.00;99.90;;;;;;5037823;28;20045;-80
2023/09/05 05:23:05;;;;;;;0.10;0.10;;;15.00;99.90;;;;;;5028290;28;20093;-80
2023/09/05 05:25:31;;;;;;;0.20;0.20;;;15.00;99.90;;;;;;5029698;28;20063;-79
2023/09/05 05:27:56;;;;;;;0.10;0.10;;;15.00;99.90;;;;;;5033805;28;20033;-80
2023/09/05 05:30:22;;;;;;;0.20;0.20;;;15.00;99.90;;;;;;5034542;28;20408;-80
2023/09/05 05:32:48;;;;;;;0.20;0.20;;;15.00;99.90;;;;;;5032551;28;20033;-80
2023/09/05 05:35:13;;;;;;;0.10;0.10;;;15.10;99.90;;;;;;5053373;28;20110;-80
2023/09/05 05:37:39;;;;;;;0.10;0.10;;;15.10;99.90;;;;;;5035330;28;20119;-79
2023/09/05 05:40:05;;;;;;;0.20;0.20;;;15.10;99.90;;;;;;5037818;28;20424;-80
2023/09/05 05:42:31;;;;;;;0.20;0.20;;;15.20;99.90;;;;;;5029076;28;20048;-79
2023/09/05 05:44:57;;;;;;;0.10;0.10;;;15.20;99.90;;;;;;5050407;28;20055;-80
2023/09/05 05:47:24;;;;;;;0.10;0.10;;;15.20;99.90;;;;;;5027804;28;20332;-79
2023/09/05 05:49:50;;;;;;;0.20;0.20;;;15.20;99.90;;;;;;5026590;28;20127;-80
2023/09/05 05:52:16;;;;;;;0.20;0.20;;;15.30;99.90;;;;;;5051317;28;20120;-79
2023/09/05 05:54:41;;;;;;;0.20;0.20;;;15.30;99.90;;;;;;5051687;28;20041;-80
2023/09/05 05:57:07;;;;;;;0.20;0.20;;;15.30;99.90;;;;;;5050362;28;20025;-80
2023/09/05 05:59:33;;;;;;;0.20;0.20;;;15.30;99.90;;;;;;5049203;28;20481;-80
2023/09/05 06:01:59;;;;;;;0.20;0.20;;;15.30;99.90;;;;;;5029899;28;20049;-78
2023/09/05 06:04:24;;;;;;;0.20;0.20;;;15.40;99.90;;;;;;5046795;28;20461;-80
2023/09/05 06:06:50;;;;;;;0.20;0.20;;;15.40;99.90;;;;;;5048039;28;20048;-80
2023/09/05 06:09:18;;;;;;;0.13;0.13;;;15.50;99.90;;;;;;5050239;28;20551;-80
2023/09/05 06:11:44;;;;;;;0.20;0.20;;;15.50;99.90;;;;;;5049472;28;20049;-81
2023/09/05 06:14:10;;;;;;;0.20;0.20;;;15.60;99.90;;;;;;5026041;28;20132;-80
2023/09/05 06:16:36;;;;;;;0.20;0.20;;;15.70;99.90;;;;;;5026923;28;20124;-81
2023/09/05 06:19:02;;;;;;;0.20;0.20;;;15.80;99.90;;;;;;5044645;28;20037;-80
2023/09/05 06:21:27;;;;;;;0.20;0.20;;;15.80;99.90;;;;;;5048834;28;20056;-80
2023/09/05 06:23:53;;;;;;;0.10;0.10;;;15.80;99.90;;;;;;5046479;28;20073;-81
2023/09/05 06:26:19;;;;;;;0.10;0.10;;;15.90;99.90;;;;;;5051610;28;20045;-80
2023/09/05 06:28:44;;;;;;;0.17;0.17;;;15.90;99.90;;;;;;5044441;28;20076;-80
2023/09/05 06:31:11;;;;;;;0.20;0.20;;;16.00;99.90;;;;;;5050560;28;20052;-81
2023/09/05 06:33:37;;;;;;;0.10;0.10;;;16.00;99.90;;;;;;5032076;28;20047;-81
2023/09/05 06:36:11;;;;;;;0.20;0.20;;;16.00;99.90;;;;;;5031756;28;20296;-81
2023/09/05 06:38:37;;;;;;;0.20;0.20;;;16.00;99.90;;;;;;5022948;28;20148;-81
2023/09/05 06:41:11;;;;;;;0.20;0.20;;;16.00;99.90;;;;;;5031711;28;20527;-81
2023/09/05 06:43:39;;;;;;;0.20;0.20;;;16.00;99.90;;;;;;5018327;28;20048;-82
2023/09/05 06:46:06;;;;;;;0.20;0.20;;;16.10;99.90;;;;;;5032810;28;20068;-81
2023/09/05 06:48:34;;;;;;;0.10;0.10;;;16.20;99.90;;;;;;5029541;28;20106;-81
2023/09/05 06:51:00;;;;;;;0.10;0.10;;;16.10;99.90;;;;;;5042481;28;20038;-82
2023/09/05 06:53:28;;;;;;;0.20;0.20;;;16.20;99.90;;;;;;5040398;28;20178;-80
2023/09/05 06:55:54;;;;;;;0.20;0.20;;;16.20;99.90;;;;;;5019044;28;20044;-80
2023/09/05 06:58:22;;;;;;;0.10;0.10;;;16.20;99.90;;;;;;5046992;28;20037;-80
2023/09/05 07:00:53;;;;;;;0.20;0.20;;;16.30;99.90;;;;;;5037975;28;20056;-81
2023/09/05 07:03:22;;;;;;;0.20;0.20;;;16.30;99.90;;;;;;5047255;28;20040;-81
2023/09/05 07:05:48;;;;;;;0.20;0.20;;;16.40;99.90;;;;;;5050330;28;20481;-79
2023/09/05 07:08:14;;;;;;;0.20;0.20;;;16.40;99.90;;;;;;5032700;28;20055;-80
2023/09/05 07:10:39;;;;;;;0.20;0.20;;;16.50;99.90;;;;;;5033214;28;20503;-80
2023/09/05 07:13:05;;;;;;;0.20;0.20;;;16.50;99.90;;;;;;5033072;28;20171;-81
2023/09/05 07:15:30;;;;;;;0.10;0.10;;;16.50;99.90;;;;;;5030615;28;20464;-80
2023/09/05 07:17:56;;;;;;;0.10;0.10;;;16.50;99.90;;;;;;5030335;28;20405;-81
2023/09/05 07:20:22;;;;;;;0.20;0.20;;;16.60;99.90;;;;;;5029456;28;20510;-80
2023/09/05 07:22:48;;;;;;;0.20;0.20;;;16.60;99.90;;;;;;5031087;28;20040;-81
2023/09/05 07:25:13;;;;;;;0.17;0.17;;;16.70;99.90;;;;;;5029599;28;20174;-81
2023/09/05 07:27:40;;;;;;;0.20;0.20;;;16.70;99.90;;;;;;5047816;28;20045;-80
2023/09/05 07:30:06;;;;;;;0.20;0.20;;;16.80;99.90;;;;;;5045430;28;20512;-80
2023/09/05 07:32:32;;;;;;;0.20;0.20;;;16.90;99.90;;;;;;5037194;28;20045;-80
2023/09/05 07:34:58;;;;;;;0.13;0.13;;;16.90;99.90;;;;;;5045353;28;20477;-80
2023/09/05 07:37:23;;;;;;;0.20;0.20;;;17.00;99.90;;;;;;5032003;28;20408;-81
2023/09/05 07:39:51;;;;;;;0.17;0.17;;;17.10;99.90;;;;;;5021784;28;20228;-80
2023/09/05 07:42:17;;;;;;;0.20;0.20;;;17.10;99.90;;;;;;5039686;28;20040;-81
2023/09/05 07:44:43;;;;;;;0.20;0.20;;;17.20;99.90;;;;;;5049024;28;20041;-81
2023/09/05 07:47:09;;;;;;;0.20;0.20;;;17.20;99.90;;;;;;5031106;28;20045;-80
2023/09/05 07:49:40;;;;;;;0.20;0.20;;;17.30;99.90;;;;;;5043951;28;20500;-80
2023/09/05 07:52:06;;;;;;;0.20;0.20;;;17.30;99.90;;;;;;5046030;28;20045;-81
2023/09/05 07:54:33;;;;;;;0.20;0.20;;;17.40;99.90;;;;;;5048308;28;20527;-80
2023/09/05 07:56:59;;;;;;;0.20;0.20;;;17.50;99.90;;;;;;5042591;28;21465;-79
2023/09/05 07:59:25;;;;;;;0.20;0.20;;;17.50;99.90;;;;;;5046132;28;20103;-80
2023/09/05 08:01:51;;;;;;;0.10;0.10;;;17.60;99.90;;;;;;5027950;28;20044;-80
2023/09/05 08:04:16;;;;;;;0.20;0.20;;;17.70;99.90;;;;;;5047175;28;20053;-80
2023/09/05 08:06:42;;;;;;;0.20;0.20;;;17.80;99.90;;;;;;5027714;28;20052;-80
2023/09/05 08:09:08;;;;;;;0.17;0.17;;;17.80;99.90;;;;;;5020641;28;20068;-80
2023/09/05 08:11:34;;;;;;;0.20;0.20;;;17.90;99.90;;;;;;5021025;28;20403;-83
2023/09/05 08:13:59;;;;;;;0.20;0.20;;;18.00;99.90;;;;;;5020028;28;20063;-80
2023/09/05 08:16:25;;;;;;;0.20;0.20;;;18.10;99.90;;;;;;5021858;28;20416;-81
2023/09/05 08:18:51;;;;;;;0.20;0.20;;;18.20;99.90;;;;;;5039773;28;20040;-80
2023/09/05 08:21:18;;;;;;;0.20;0.20;;;18.20;99.90;;;;;;5044598;28;20069;-81
2023/09/05 08:23:44;;;;;;;0.20;0.20;;;18.30;99.90;;;;;;5040150;28;20050;-80
2023/09/05 08:26:10;;;;;;;0.20;0.20;;;18.40;99.90;;;;;;5030651;28;20041;-80
2023/09/05 08:28:42;;;;;;;0.20;0.20;;;18.50;99.90;;;;;;5014603;28;20045;-80
2023/09/05 08:31:08;;;;;;;0.20;0.20;;;18.60;99.90;;;;;;5017584;28;20037;-81
2023/09/05 08:33:34;;;;;;;0.20;0.20;;;18.70;99.90;;;;;;5020836;28;20044;-81
2023/09/05 08:36:00;;;;;;;0.20;0.20;;;18.70;99.90;;;;;;5042665;28;20105;-81
2023/09/05 08:38:25;;;;;;;0.22;0.22;;;18.80;99.90;;;;;;5042529;28;20370;-81
2023/09/05 08:40:51;;;;;;;0.20;0.20;;;18.90;99.90;;;;;;5024053;28;20033;-87
2023/09/05 08:43:17;;;;;;;0.20;0.20;;;19.00;99.90;;;;;;5029660;28;20148;-87
2023/09/05 08:45:46;;;;;;;0.20;0.20;;;19.10;99.90;;;;;;5050615;28;20236;-87
2023/09/05 08:48:12;;;;;;;0.20;0.20;;;19.20;99.90;;;;;;5024762;28;20094;-87
2023/09/05 08:50:40;;;;;;;0.20;0.20;;;19.30;99.90;;;;;;5028317;28;20060;-86
2023/09/05 08:53:14;;;;;;;0.20;0.20;;;19.40;99.90;;;;;;5030622;28;20059;-85
2023/09/05 08:55:41;;;;;;;0.20;0.20;;;19.50;99.90;;;;;;5043392;28;20053;-85
2023/09/05 08:58:15;;;;;;;0.20;0.20;;;19.60;99.90;;;;;;5044823;28;20528;-86
2023/09/05 09:00:43;;;;;;;0.20;0.20;;;19.70;99.90;;;;;;5049468;28;20052;-85
2023/09/05 09:03:11;;;;;;;;;;;19.70;99.90;;;;;;5045079;28;20048;-86
2023/09/05 09:05:37;;;;;;;0.20;0.20;;;19.80;99.90;;;;;;5044401;28;20803;-86
2023/09/05 09:08:04;;;;;;;0.20;0.20;;;20.00;99.90;;;;;;5031958;28;20565;-86
2023/09/05 09:10:29;;;;;;;0.20;0.20;;;20.00;99.90;;;;;;5047016;28;20106;-84
2023/09/05 09:13:17;;;;;;;0.22;0.22;;;20.10;99.90;;;;;;5024778;28;20072;-86
2023/09/05 09:15:43;;;;;;;0.20;0.20;;;20.30;99.90;;;;;;5020293;28;20408;-85
2023/09/05 09:18:13;;;;;;;0.20;0.20;;;20.30;99.90;;;;;;5022973;28;20044;-85
2023/09/05 09:20:46;;;;;;;0.20;0.20;;;20.40;99.90;;;;;;5026803;28;20455;-85
2023/09/05 09:23:13;;;;;;;0.20;0.20;;;20.50;99.90;;;;;;5042227;28;20037;-85
2023/09/05 09:25:49;;;;;;;0.20;0.20;;;20.60;99.90;;;;;;5024608;28;20029;-83
2023/09/05 09:28:36;;;;;;;0.20;0.20;;;20.60;99.90;;;;;;5012306;28;20044;-82
2023/09/05 09:31:13;;;;;;;0.20;0.20;;;20.70;99.90;;;;;;5024587;28;20060;-82
2023/09/05 09:33:40;;;;;;;0.20;0.20;;;20.80;99.90;;;;;;5040780;28;20489;-83
2023/09/05 09:36:09;;;;;;;0.20;0.20;;;20.90;99.90;;;;;;5023167;28;20044;-83
2023/09/05 09:38:35;;;;;;;0.20;0.20;;;21.00;99.90;;;;;;5029292;28;20095;-83
2023/09/05 09:41:04;;;;;;;0.20;0.20;;;21.10;99.90;;;;;;5045007;28;20052;-81
2023/09/05 09:43:34;;;;;;;0.20;0.20;;;21.10;99.90;;;;;;5045893;28;20048;-83
2023/09/05 09:46:03;;;;;;;0.20;0.20;;;21.20;99.90;;;;;;5046999;28;20037;-84
2023/09/05 09:48:30;;;;;;;0.20;0.20;;;21.30;99.90;;;;;;5030210;28;20040;-82
2023/09/05 09:50:57;;;;;;;0.20;0.20;;;21.30;99.90;;;;;;5025153;28;20049;-82
2023/09/05 09:53:34;;;;;;;0.20;0.20;;;21.40;99.90;;;;;;5031128;28;20107;-82
2023/09/05 09:56:03;;;;;;;0.20;0.20;;;21.60;99.90;;;;;;5045058;28;20370;-81
2023/09/05 09:58:30;;;;;;;0.20;0.20;;;21.60;99.90;;;;;;5050424;28;20550;-82
2023/09/05 10:00:58;;;;;;;0.20;0.20;;;21.70;99.90;;;;;;5048218;28;20044;-82
2023/09/05 10:03:25;;;;;;;0.20;0.20;;;21.80;99.90;;;;;;5031562;28;20464;-81
2023/09/05 10:05:52;;;;;;;0.20;0.20;;;21.90;99.90;;;;;;5044407;28;20033;-82
2023/09/05 10:08:19;;;;;;;0.20;0.20;;;21.90;99.90;;;;;;5019907;28;20132;-83
2023/09/05 10:10:46;;;;;;;0.20;0.20;;;22.00;99.90;;;;;;5029611;28;20041;-79
2023/09/05 10:13:13;;;;;;;0.20;0.20;;;22.00;99.90;;;;;;5042440;28;20048;-78
2023/09/05 10:15:41;;;;;;;0.20;0.20;;;22.10;99.90;;;;;;5036680;28;20045;-79
2023/09/05 10:18:12;;;;;;;0.13;0.13;;;22.20;99.90;;;;;;5030601;28;20036;-79
2023/09/05 10:20:40;;;;;;;0.20;0.20;;;22.30;99.90;;;;;;5046551;28;20037;-79
2023/09/05 10:23:06;;;;;;;0.20;0.20;;;22.30;99.90;;;;;;5032010;28;20131;-77
2023/09/05 10:25:36;;;;;;;0.20;0.20;;;22.50;99.90;;;;;;5031419;28;20064;-77
2023/09/05 10:28:02;;;;;;;0.20;0.20;;;22.50;99.90;;;;;;5034135;28;20540;-78
2023/09/05 10:30:49;;;;;;;0.20;0.20;;;22.70;99.90;;;;;;5032983;28;20492;-80
2023/09/05 10:33:17;;;;;;;0.20;0.20;;;22.80;99.90;;;;;;5014002;28;20090;-78
2023/09/05 10:35:44;;;;;;;0.20;0.20;;;22.90;99.90;;;;;;5050130;28;20320;-79
2023/09/05 10:38:12;;;;;;;0.17;0.17;;;23.00;99.90;;;;;;5028532;28;20110;-80
2023/09/05 10:40:39;;;;;;;0.20;0.20;;;23.00;99.90;;;;;;5030805;28;20049;-79
2023/09/05 10:43:18;;;;;;;0.20;0.20;;;23.10;99.90;;;;;;5032642;28;20171;-79
2023/09/05 10:45:43;;;;;;;0.20;0.20;;;23.20;99.90;;;;;;5049162;28;20498;-78
2023/09/05 10:48:17;;;;;;;0.20;0.20;;;23.30;99.90;;;;;;5050439;28;20128;-78
2023/09/05 10:51:07;;;;;;;0.20;0.20;;;23.40;99.90;;;;;;5032947;28;20211;-79
2023/09/05 10:53:34;;;;;;;0.20;0.20;;;23.50;99.90;;;;;;5018569;28;20084;-80
2023/09/05 10:56:01;;;;;;;0.20;0.20;;;23.60;99.90;;;;;;5049348;28;20124;-79
2023/09/05 10:58:47;;;;;;;0.20;0.20;;;23.70;99.90;;;;;;5032270;28;20083;-80
2023/09/05 11:01:29;;;;;;;0.20;0.20;;;23.80;99.90;;;;;;5017945;28;20049;-79
2023/09/05 11:03:55;;;;;;;0.20;0.20;;;23.90;99.90;;;;;;5026521;28;20057;-79
2023/09/05 11:06:22;;;;;;;0.20;0.20;;;24.00;99.90;;;;;;5030200;28;20075;-79
2023/09/05 11:09:05;;;;;;;0.20;0.20;;;24.10;99.90;;;;;;5033419;28;20041;-80
2023/09/05 11:11:45;;;;;;;0.28;0.28;;;24.30;99.90;;;;;;5030492;28;20049;-80
2023/09/05 11:14:10;;;;;;;0.20;0.20;;;24.30;99.90;;;;;;5023025;28;20040;-79
2023/09/05 11:16:47;;;;;;;0.20;0.20;;;24.50;99.90;;;;;;5030368;28;20044;-79
2023/09/05 11:19:31;;;;;;;0.20;0.20;;;24.50;99.90;;;;;;5047128;28;20048;-80
2023/09/05 11:22:17;;;;;;;0.20;0.20;;;24.70;99.90;;;;;;5021630;28;20128;-80
2023/09/05 11:24:47;;;;;;;0.20;0.20;;;24.80;99.90;;;;;;5030184;28;20057;-79
2023/09/05 11:27:18;;;;;;;0.20;0.20;;;24.90;99.90;;;;;;5030323;28;20048;-79
2023/09/05 11:29:45;;;;;;;0.20;0.20;;;25.00;99.90;;;;;;5029978;28;20048;-80
2023/09/05 11:32:14;;;;;;;0.20;0.20;;;25.10;99.90;;;;;;5050301;28;20041;-79
2023/09/05 11:34:45;;;;;;;0.20;0.20;;;25.20;99.90;;;;;;5026317;28;20053;-79
2023/09/05 11:37:16;;;;;;;0.20;0.20;;;25.30;99.90;;;;;;5027875;28;20392;-78
2023/09/05 11:39:41;;;;;;;0.20;0.20;;;25.40;99.90;;;;;;5047428;28;20109;-79
2023/09/05 11:42:30;;;;;;;0.20;0.20;;;25.50;99.90;;;;;;5024549;28;20127;-79
2023/09/05 11:44:57;;;;;;;0.20;0.20;;;25.60;99.90;;;;;;5046681;28;20041;-79
2023/09/05 11:47:24;;;;;;;0.20;0.20;;;25.70;99.90;;;;;;5022272;28;20061;-79
2023/09/05 11:49:52;;;;;;;0.20;0.20;;;25.90;99.90;;;;;;5026125;28;20045;-80
2023/09/05 11:52:20;;;;;;;0.20;0.20;;;26.00;99.90;;;;;;5023969;28;20049;-79
2023/09/05 11:54:48;;;;;;;0.20;0.20;;;26.20;99.90;;;;;;5027637;28;20063;-79
2023/09/05 11:57:19;;;;;;;0.20;0.20;;;26.30;99.90;;;;;;5026703;28;20041;-81
2023/09/05 11:59:46;;;;;;;0.20;0.20;;;26.50;99.90;;;;;;5034239;28;20120;-81
2023/09/05 12:02:15;;;;;;;0.20;0.20;;;26.70;99.90;;;;;;5030213;28;20052;-81
2023/09/05 12:04:41;;;;;;;0.20;0.20;;;26.90;99.90;;;;;;5047606;28;20524;-80
2023/09/05 12:07:07;;;;;;;0.20;0.20;;;27.10;99.90;;;;;;5026473;28;20389;-80
2023/09/05 12:09:33;;;;;;;0.20;0.20;;;27.40;99.90;;;;;;5044958;28;20048;-80
2023/09/05 12:12:13;;;;;;;0.20;0.20;;;27.60;99.90;;;;;;5027093;28;20131;-81
2023/09/05 12:14:56;;;;;;;0.20;0.20;;;27.90;99.90;;;;;;5044452;28;20040;-78
2023/09/05 12:17:24;;;;;;;0.20;0.20;;;28.10;99.90;;;;;;5029475;28;20044;-80
2023/09/05 12:19:52;;;;;;;0.20;0.20;;;28.40;99.90;;;;;;5046938;28;20073;-80
2023/09/05 12:22:25;;;;;;;0.20;0.20;;;28.60;99.90;;;;;;5042776;28;20044;-79
2023/09/05 12:25:08;;;;;;;0.20;0.20;;;28.90;99.90;;;;;;5040796;28;20162;-80
2023/09/05 12:27:34;;;;;;;0.20;0.20;;;29.10;99.90;;;;;;5029094;28;20049;-80
2023/09/05 12:29:59;;;;;;;0.20;0.20;;;29.30;99.90;;;;;;5049226;28;20053;-79
2023/09/05 12:32:26;;;;;;;0.22;0.22;;;29.40;99.90;;;;;;5030259;28;20049;-80
2023/09/05 12:34:55;;;;;;;0.20;0.20;;;29.60;99.90;;;;;;5020637;28;20052;-79
2023/09/05 12:37:22;;;;;;;0.20;0.20;;;29.80;99.90;;;;;;5048011;28;20037;-80
2023/09/05 12:39:50;;;;;;;0.20;0.20;;;30.00;99.90;;;;;;5029367;28;20125;-79
2023/09/05 12:42:16;;;;;;;0.30;0.30;;;30.10;99.90;;;;;;5048992;28;20064;-80
2023/09/05 12:44:42;;;;;;;0.20;0.20;;;30.30;99.90;;;;;;5045066;28;20520;-79
2023/09/05 12:47:08;;;;;;;0.20;0.20;;;30.50;99.90;;;;;;5041747;28;20057;-80
2023/09/05 12:49:36;;;;;;;0.20;0.20;;;30.60;99.90;;;;;;5024460;28;20037;-79
2023/09/05 12:52:03;;;;;;;0.20;0.20;;;30.70;99.90;;;;;;5045987;28;20059;-80